Temp: 7.7°C   Baro: 1005.3mb
  Wind: 4.9mph   Dir: W (261°)
  Rain: 1.0mm (1.4mm/hr)
  Sun: 0W/m2  Humidity: 94%

Historic data

Bath Spa Weather Station Historical Data
Daily Summary for October 7, 2022 Units:  Both    English   Metric
Daily Weekly Monthly Yearly Custom
  High: Low: Average:
Temperature: 65.2 °F /  18.4 °C 49.5 °F /  9.7 °C 56.5 °F /  13.6 °C
Dew Point: 54.5 °F /  12.5 °C 46.6 °F /  8.1 °C 51.5 °F /  10.8 °C
Humidity: 90% 65.6% 84%
Wind Speed: 15.3mph /  24.6km/h - 5.4mph /  8.7km/h
Wind Gust: 26mph /  41.8km/h - -
Wind- - WSW
Pressure: 30.28 in /  1025.3 hPa 30.02 in /  1016.5 hPa -
Precipitation: 0.03 in /  0.76 mm    
Historical Graphs
 
 
Tabular Data for October 7, 2022
Time Temperature Dew Point Pressure Wind Wind Speed Wind Gust Humidity Rainfall Rate (Hourly) solar
00:09 54.2 °F /  12.3 °C 50.8 °F /  10.4 °C 30.28in /  1025.3hPa WNW 2.2mph /  3.5km/h 4mph /  6.4km/h 88% 0.00in /  0mm 0 W/m2
00:14 54.1 °F /  12.3 °C 50.7 °F /  10.4 °C 30.28in /  1025.3hPa WNW 2.5mph /  4km/h 5mph /  8km/h 88% 0.00in /  0mm 0 W/m2
00:19 54 °F /  12.2 °C 50.5 °F /  10.3 °C 30.28in /  1025.3hPa West 2.3mph /  3.7km/h 5mph /  8km/h 88% 0.00in /  0mm 0 W/m2
00:24 54 °F /  12.2 °C 50.6 °F /  10.3 °C 30.27in /  1024.9hPa SW 2.5mph /  4km/h 9mph /  14.5km/h 88.2% 0.00in /  0mm 0 W/m2
00:29 54.2 °F /  12.3 °C 50.9 °F /  10.5 °C 30.27in /  1024.9hPa WSW 5mph /  8km/h 11mph /  17.7km/h 88.6% 0.00in /  0mm 0 W/m2
00:34 54.3 °F /  12.4 °C 50.9 °F /  10.5 °C 30.27in /  1024.9hPa SW 4.4mph /  7.1km/h 10mph /  16.1km/h 88% 0.00in /  0mm 0 W/m2
00:39 54.7 °F /  12.6 °C 51.3 °F /  10.7 °C 30.27in /  1024.9hPa SW 3.3mph /  5.3km/h 6mph /  9.7km/h 88% 0.00in /  0mm 0 W/m2
00:44 54.7 °F /  12.6 °C 51.3 °F /  10.7 °C 30.27in /  1024.9hPa WSW 3.6mph /  5.8km/h 7mph /  11.3km/h 88% 0.00in /  0mm 0 W/m2
00:49 54.7 °F /  12.6 °C 51.3 °F /  10.7 °C 30.27in /  1024.9hPa SW 3.7mph /  6km/h 8mph /  12.9km/h 88% 0.00in /  0mm 0 W/m2
00:54 54.7 °F /  12.6 °C 51.3 °F /  10.7 °C 30.27in /  1024.9hPa SW 1.8mph /  2.9km/h 6mph /  9.7km/h 88% 0.00in /  0mm 0 W/m2
00:59 54.6 °F /  12.6 °C 51.2 °F /  10.7 °C 30.27in /  1024.9hPa SW 1.7mph /  2.7km/h 4mph /  6.4km/h 88% 0.00in /  0mm 0 W/m2
01:04 54.4 °F /  12.4 °C 51 °F /  10.6 °C 30.27in /  1024.9hPa WNW 3.6mph /  5.8km/h 8mph /  12.9km/h 88% 0.00in /  0mm 0 W/m2
01:09 54.3 °F /  12.4 °C 50.9 °F /  10.5 °C 30.27in /  1024.9hPa WSW 4.1mph /  6.6km/h 7mph /  11.3km/h 88% 0.00in /  0mm 0 W/m2
01:14 54.4 °F /  12.4 °C 51 °F /  10.6 °C 30.26in /  1024.6hPa SW 2.8mph /  4.5km/h 7mph /  11.3km/h 88% 0.00in /  0mm 0 W/m2
01:19 54.3 °F /  12.4 °C 50.9 °F /  10.5 °C 30.26in /  1024.6hPa West 1.7mph /  2.7km/h 9mph /  14.5km/h 88% 0.00in /  0mm 0 W/m2
01:24 54.3 °F /  12.4 °C 50.9 °F /  10.5 °C 30.26in /  1024.6hPa West 2.5mph /  4km/h 5mph /  8km/h 88% 0.00in /  0mm 0 W/m2
01:29 54.3 °F /  12.4 °C 50.9 °F /  10.5 °C 30.26in /  1024.6hPa West 2.2mph /  3.5km/h 5mph /  8km/h 88% 0.00in /  0mm 0 W/m2
01:34 54.3 °F /  12.4 °C 50.9 °F /  10.5 °C 30.26in /  1024.6hPa SW 3.2mph /  5.1km/h 7mph /  11.3km/h 88% 0.00in /  0mm 0 W/m2
01:39 54.3 °F /  12.4 °C 50.9 °F /  10.5 °C 30.26in /  1024.6hPa WSW 1.7mph /  2.7km/h 7mph /  11.3km/h 88% 0.00in /  0mm 0 W/m2
01:44 54.2 °F /  12.3 °C 50.8 °F /  10.4 °C 30.26in /  1024.6hPa West 1.6mph /  2.6km/h 6mph /  9.7km/h 88% 0.00in /  0mm 0 W/m2
01:49 54.1 °F /  12.3 °C 50.7 °F /  10.4 °C 30.26in /  1024.6hPa WSW 2.5mph /  4km/h 7mph /  11.3km/h 88% 0.00in /  0mm 0 W/m2
01:54 54.3 °F /  12.4 °C 50.9 °F /  10.5 °C 30.25in /  1024.3hPa WSW 2.1mph /  3.4km/h 7mph /  11.3km/h 88% 0.00in /  0mm 0 W/m2
01:59 54.2 °F /  12.3 °C 50.9 °F /  10.5 °C 30.25in /  1024.3hPa WSW 2.3mph /  3.7km/h 6mph /  9.7km/h 88.2% 0.00in /  0mm 0 W/m2
02:04 54.2 °F /  12.3 °C 50.8 °F /  10.4 °C 30.25in /  1024.3hPa SW 4.1mph /  6.6km/h 11mph /  17.7km/h 88% 0.00in /  0mm 0 W/m2
02:09 54.1 °F /  12.3 °C 50.8 °F /  10.4 °C 30.25in /  1024.3hPa SW 3.2mph /  5.1km/h 9mph /  14.5km/h 88.4% 0.00in /  0mm 0 W/m2
02:14 54.1 °F /  12.3 °C 50.9 °F /  10.5 °C 30.25in /  1024.3hPa SW 2.4mph /  3.9km/h 6mph /  9.7km/h 89% 0.00in /  0mm 0 W/m2
02:19 54 °F /  12.2 °C 50.8 °F /  10.4 °C 30.25in /  1024.3hPa SW 0.2mph /  0.3km/h 4mph /  6.4km/h 89% 0.00in /  0mm 0 W/m2
02:24 53.9 °F /  12.2 °C 50.5 °F /  10.3 °C 30.24in /  1023.9hPa SW 1.4mph /  2.3km/h 5mph /  8km/h 88.2% 0.00in /  0mm 0 W/m2
02:29 53.7 °F /  12.1 °C 50.4 °F /  10.2 °C 30.24in /  1023.9hPa SW 0.8mph /  1.3km/h 6mph /  9.7km/h 89% 0.00in /  0mm 0 W/m2
02:34 53.4 °F /  11.9 °C 50.2 °F /  10.1 °C 30.24in /  1023.9hPa WSW 2.1mph /  3.4km/h 5mph /  8km/h 89% 0.00in /  0mm 0 W/m2
02:39 53.5 °F /  11.9 °C 50.3 °F /  10.2 °C 30.24in /  1023.9hPa WSW 2.5mph /  4km/h 6mph /  9.7km/h 89% 0.00in /  0mm 0 W/m2
02:44 53.8 °F /  12.1 °C 50.5 °F /  10.3 °C 30.23in /  1023.6hPa SW 2.5mph /  4km/h 8mph /  12.9km/h 89% 0.00in /  0mm 0 W/m2
02:49 53.8 °F /  12.1 °C 50.5 °F /  10.3 °C 30.23in /  1023.6hPa SW 4.4mph /  7.1km/h 8mph /  12.9km/h 89% 0.00in /  0mm 0 W/m2
02:54 53.8 °F /  12.1 °C 50.5 °F /  10.3 °C 30.23in /  1023.6hPa WSW 2.9mph /  4.7km/h 6mph /  9.7km/h 89% 0.00in /  0mm 0 W/m2
02:59 53.9 °F /  12.2 °C 50.6 °F /  10.3 °C 30.22in /  1023.2hPa SW 3.4mph /  5.5km/h 9mph /  14.5km/h 89% 0.00in /  0mm 0 W/m2
03:04 54 °F /  12.2 °C 50.7 °F /  10.4 °C 30.22in /  1023.2hPa SW 4.5mph /  7.2km/h 9mph /  14.5km/h 89% 0.00in /  0mm 0 W/m2
03:09 54 °F /  12.2 °C 50.7 °F /  10.4 °C 30.22in /  1023.2hPa WSW 4.5mph /  7.2km/h 10mph /  16.1km/h 89% 0.00in /  0mm 0 W/m2
03:14 54 °F /  12.2 °C 50.7 °F /  10.4 °C 30.21in /  1022.9hPa WSW 3.9mph /  6.3km/h 8mph /  12.9km/h 89% 0.00in /  0mm 0 W/m2
03:19 54.1 °F /  12.3 °C 50.9 °F /  10.5 °C 30.21in /  1022.9hPa SW 5.2mph /  8.4km/h 12mph /  19.3km/h 89% 0.00in /  0mm 0 W/m2
03:24 54.1 °F /  12.3 °C 50.9 °F /  10.5 °C 30.21in /  1022.9hPa SW 7.8mph /  12.6km/h 10mph /  16.1km/h 89% 0.00in /  0mm 0 W/m2
03:29 54.1 °F /  12.3 °C 50.9 °F /  10.5 °C 30.21in /  1022.9hPa WSW 5.4mph /  8.7km/h 13mph /  20.9km/h 89% 0.00in /  0mm 0 W/m2
03:34 54.1 °F /  12.3 °C 50.7 °F /  10.4 °C 30.21in /  1022.9hPa WSW 6mph /  9.7km/h 11mph /  17.7km/h 88.2% 0.00in /  0mm 0 W/m2
03:39 54.1 °F /  12.3 °C 50.7 °F /  10.4 °C 30.20in /  1022.6hPa West 6.2mph /  10km/h 11mph /  17.7km/h 88% 0.00in /  0mm 0 W/m2
03:44 54.1 °F /  12.3 °C 50.7 °F /  10.4 °C 30.20in /  1022.6hPa SW 4.5mph /  7.2km/h 10mph /  16.1km/h 88% 0.00in /  0mm 0 W/m2
03:49 54.1 °F /  12.3 °C 50.6 °F /  10.3 °C 30.20in /  1022.6hPa WSW 5.8mph /  9.3km/h 10mph /  16.1km/h 88% 0.00in /  0mm 0 W/m2
03:54 54.2 °F /  12.3 °C 50.8 °F /  10.4 °C 30.20in /  1022.6hPa SW 6.3mph /  10.1km/h 17mph /  27.4km/h 88% 0.00in /  0mm 0 W/m2
03:59 54.3 °F /  12.4 °C 50.9 °F /  10.5 °C 30.19in /  1022.2hPa WSW 5.8mph /  9.3km/h 13mph /  20.9km/h 88% 0.00in /  0mm 0 W/m2
04:04 54.3 °F /  12.4 °C 50.9 °F /  10.5 °C 30.19in /  1022.2hPa WSW 7.6mph /  12.2km/h 15mph /  24.1km/h 88% 0.00in /  0mm 0 W/m2
04:09 54.3 °F /  12.4 °C 50.9 °F /  10.5 °C 30.19in /  1022.2hPa WSW 5.7mph /  9.2km/h 13mph /  20.9km/h 88% 0.00in /  0mm 0 W/m2
04:14 54.3 °F /  12.4 °C 50.9 °F /  10.5 °C 30.19in /  1022.2hPa WSW 5.3mph /  8.5km/h 12mph /  19.3km/h 88% 0.00in /  0mm 0 W/m2
04:19 54.2 °F /  12.3 °C 50.8 °F /  10.4 °C 30.19in /  1022.2hPa WSW 5.7mph /  9.2km/h 15mph /  24.1km/h 88% 0.00in /  0mm 0 W/m2
04:24 54.3 °F /  12.4 °C 50.9 °F /  10.5 °C 30.19in /  1022.2hPa WSW 4.4mph /  7.1km/h 11mph /  17.7km/h 88% 0.00in /  0mm 0 W/m2
04:29 54.2 °F /  12.3 °C 50.8 °F /  10.4 °C 30.18in /  1021.9hPa WSW 2.9mph /  4.7km/h 11mph /  17.7km/h 88% 0.00in /  0mm 0 W/m2
04:34 54.1 °F /  12.3 °C 50.7 °F /  10.4 °C 30.19in /  1022.2hPa WSW 3.8mph /  6.1km/h 8mph /  12.9km/h 88% 0.00in /  0mm 0 W/m2
04:39 54.1 °F /  12.3 °C 50.7 °F /  10.4 °C 30.18in /  1021.9hPa West 3.7mph /  6km/h 8mph /  12.9km/h 88% 0.00in /  0mm 0 W/m2
04:44 54 °F /  12.2 °C 50.5 °F /  10.3 °C 30.18in /  1021.9hPa West 4.9mph /  7.9km/h 10mph /  16.1km/h 88% 0.00in /  0mm 0 W/m2
04:49 54.1 °F /  12.3 °C 50.6 °F /  10.3 °C 30.18in /  1021.9hPa SW 6.2mph /  10km/h 12mph /  19.3km/h 88% 0.00in /  0mm 0 W/m2
04:54 54.1 °F /  12.3 °C 50.7 °F /  10.4 °C 30.18in /  1021.9hPa WSW 4mph /  6.4km/h 11mph /  17.7km/h 88% 0.00in /  0mm 0 W/m2
04:59 54 °F /  12.2 °C 50.6 °F /  10.3 °C 30.17in /  1021.6hPa WSW 5.2mph /  8.4km/h 12mph /  19.3km/h 88% 0.00in /  0mm 0 W/m2
05:04 54 °F /  12.2 °C 50.6 °F /  10.3 °C 30.18in /  1021.9hPa WSW 4.5mph /  7.2km/h 12mph /  19.3km/h 88% 0.00in /  0mm 0 W/m2
05:09 54 °F /  12.2 °C 50.5 °F /  10.3 °C 30.18in /  1021.9hPa SW 7.4mph /  11.9km/h 12mph /  19.3km/h 88% 0.00in /  0mm 0 W/m2
05:14 54.1 °F /  12.3 °C 50.7 °F /  10.4 °C 30.18in /  1021.9hPa WSW 5.8mph /  9.3km/h 11mph /  17.7km/h 88% 0.00in /  0mm 0 W/m2
05:19 54 °F /  12.2 °C 50.6 °F /  10.3 °C 30.17in /  1021.6hPa SW 5.2mph /  8.4km/h 11mph /  17.7km/h 88% 0.00in /  0mm 0 W/m2
05:24 54 °F /  12.2 °C 50.5 °F /  10.3 °C 30.17in /  1021.6hPa WSW 5.8mph /  9.3km/h 14mph /  22.5km/h 88% 0.00in /  0mm 0 W/m2
05:29 54.1 °F /  12.3 °C 50.7 °F /  10.4 °C 30.17in /  1021.6hPa WSW 6.4mph /  10.3km/h 14mph /  22.5km/h 88% 0.00in /  0mm 0 W/m2
05:34 54.1 °F /  12.3 °C 50.7 °F /  10.4 °C 30.17in /  1021.6hPa SW 5.8mph /  9.3km/h 14mph /  22.5km/h 88% 0.00in /  0mm 0 W/m2
05:39 54.1 °F /  12.3 °C 50.7 °F /  10.4 °C 30.17in /  1021.6hPa WSW 6.7mph /  10.8km/h 11mph /  17.7km/h 88% 0.00in /  0mm 0 W/m2
05:44 54.1 °F /  12.3 °C 50.7 °F /  10.4 °C 30.17in /  1021.6hPa SW 6.3mph /  10.1km/h 12mph /  19.3km/h 88% 0.00in /  0mm 0 W/m2
05:49 54.1 °F /  12.3 °C 50.7 °F /  10.4 °C 30.17in /  1021.6hPa SW 6mph /  9.7km/h 15mph /  24.1km/h 88% 0.00in /  0mm 0 W/m2
05:54 54.3 °F /  12.4 °C 50.9 °F /  10.5 °C 30.17in /  1021.6hPa SW 6.4mph /  10.3km/h 13mph /  20.9km/h 88% 0.00in /  0mm 0 W/m2
05:59 54.3 °F /  12.4 °C 50.9 °F /  10.5 °C 30.17in /  1021.6hPa SW 5.8mph /  9.3km/h 10mph /  16.1km/h 88% 0.00in /  0mm 0 W/m2
06:04 54.2 °F /  12.3 °C 50.8 °F /  10.4 °C 30.17in /  1021.6hPa SW 3.9mph /  6.3km/h 11mph /  17.7km/h 88% 0.00in /  0mm 0 W/m2
06:09 54.3 °F /  12.4 °C 50.9 °F /  10.5 °C 30.16in /  1021.2hPa SSW 7.8mph /  12.6km/h 16mph /  25.7km/h 88% 0.00in /  0mm 0 W/m2
06:14 54.5 °F /  12.5 °C 51.1 °F /  10.6 °C 30.17in /  1021.6hPa SW 7mph /  11.3km/h 14mph /  22.5km/h 88% 0.00in /  0mm 0 W/m2
06:19 54.5 °F /  12.5 °C 51.1 °F /  10.6 °C 30.16in /  1021.2hPa SW 8.2mph /  13.2km/h 15mph /  24.1km/h 88% 0.00in /  0mm 0 W/m2
06:24 54.3 °F /  12.4 °C 50.9 °F /  10.5 °C 30.16in /  1021.2hPa SSW 7mph /  11.3km/h 14mph /  22.5km/h 88% 0.00in /  0mm 0 W/m2
06:29 54.1 °F /  12.3 °C 50.7 °F /  10.4 °C 30.16in /  1021.2hPa SW 7.2mph /  11.6km/h 11mph /  17.7km/h 88% 0.00in /  0mm 0 W/m2
06:34 54.2 °F /  12.3 °C 50.8 °F /  10.4 °C 30.16in /  1021.2hPa SSW 5.6mph /  9km/h 12mph /  19.3km/h 88% 0.00in /  0mm 0 W/m2
06:39 54.1 °F /  12.3 °C 50.7 °F /  10.4 °C 30.16in /  1021.2hPa SW 6mph /  9.7km/h 11mph /  17.7km/h 88% 0.00in /  0mm 0 W/m2
06:44 54.1 °F /  12.3 °C 50.7 °F /  10.4 °C 30.16in /  1021.2hPa SW 5.9mph /  9.5km/h 13mph /  20.9km/h 88% 0.00in /  0mm 0 W/m2
06:49 54.2 °F /  12.3 °C 50.8 °F /  10.4 °C 30.16in /  1021.2hPa SW 5.4mph /  8.7km/h 13mph /  20.9km/h 88% 0.00in /  0mm 0 W/m2
06:54 54.4 °F /  12.4 °C 51 °F /  10.6 °C 30.16in /  1021.2hPa SSW 7.4mph /  11.9km/h 14mph /  22.5km/h 88% 0.00in /  0mm 0 W/m2
06:59 54.5 °F /  12.5 °C 51.1 °F /  10.6 °C 30.15in /  1020.9hPa SSW 5.4mph /  8.7km/h 10mph /  16.1km/h 88% 0.00in /  0mm 0 W/m2
07:04 54.6 °F /  12.6 °C 51.2 °F /  10.7 °C 30.15in /  1020.9hPa SW 6.4mph /  10.3km/h 13mph /  20.9km/h 88% 0.00in /  0mm 0 W/m2
07:09 54.7 °F /  12.6 °C 51.3 °F /  10.7 °C 30.15in /  1020.9hPa SW 7.6mph /  12.2km/h 13mph /  20.9km/h 88% 0.00in /  0mm 0 W/m2
07:14 54.8 °F /  12.7 °C 51.4 °F /  10.8 °C 30.15in /  1020.9hPa SW 6.8mph /  10.9km/h 12mph /  19.3km/h 88% 0.00in /  0mm 0 W/m2
07:19 54.9 °F /  12.7 °C 51.2 °F /  10.7 °C 30.15in /  1020.9hPa SSW 6.6mph /  10.6km/h 13mph /  20.9km/h 87.4% 0.00in /  0mm 0 W/m2
07:23 54.9 °F /  12.7 °C 51.1 °F /  10.6 °C 30.15in /  1020.9hPa SSW 5.5mph /  8.9km/h 13mph /  20.9km/h 87% 0.00in /  0mm 0 W/m2
07:29 54.9 °F /  12.7 °C 51.1 °F /  10.6 °C 30.15in /  1020.9hPa SW 6mph /  9.7km/h 13mph /  20.9km/h 87% 0.00in /  0mm 7 W/m2
07:34 54.9 °F /  12.7 °C 51.1 °F /  10.6 °C 30.15in /  1020.9hPa SW 8.3mph /  13.4km/h 11mph /  17.7km/h 87% 0.00in /  0mm 9 W/m2
07:39 54.9 °F /  12.7 °C 51.1 °F /  10.6 °C 30.15in /  1020.9hPa SSW 5.3mph /  8.5km/h 11mph /  17.7km/h 87% 0.00in /  0mm 11 W/m2
07:44 54.8 °F /  12.7 °C 51 °F /  10.6 °C 30.15in /  1020.9hPa SW 5.6mph /  9km/h 13mph /  20.9km/h 87% 0.00in /  0mm 14 W/m2
07:49 54.9 °F /  12.7 °C 51.1 °F /  10.6 °C 30.15in /  1020.9hPa SW 8.2mph /  13.2km/h 14mph /  22.5km/h 87% 0.00in /  0mm 16 W/m2
07:54 55 °F /  12.8 °C 51.3 °F /  10.7 °C 30.15in /  1020.9hPa SW 4.4mph /  7.1km/h 11mph /  17.7km/h 87% 0.00in /  0mm 18 W/m2
07:59 55 °F /  12.8 °C 51.3 °F /  10.7 °C 30.15in /  1020.9hPa SSW 5.3mph /  8.5km/h 10mph /  16.1km/h 87% 0.00in /  0mm 16 W/m2
08:04 55 °F /  12.8 °C 51.3 °F /  10.7 °C 30.14in /  1020.5hPa SW 7mph /  11.3km/h 10mph /  16.1km/h 87% 0.00in /  0mm 16 W/m2
08:09 55.1 °F /  12.8 °C 51.3 °F /  10.7 °C 30.14in /  1020.5hPa SSW 6.2mph /  10km/h 12mph /  19.3km/h 87% 0.00in /  0mm 18 W/m2
08:14 55 °F /  12.8 °C 51.3 °F /  10.7 °C 30.15in /  1020.9hPa SSW 7.4mph /  11.9km/h 11mph /  17.7km/h 87% 0.00in /  0mm 19 W/m2
08:19 55.1 °F /  12.8 °C 51.3 °F /  10.7 °C 30.14in /  1020.5hPa SW 5.4mph /  8.7km/h 11mph /  17.7km/h 87% 0.00in /  0mm 19 W/m2
08:24 55 °F /  12.8 °C 51.3 °F /  10.7 °C 30.15in /  1020.9hPa SW 6.2mph /  10km/h 11mph /  17.7km/h 87% 0.00in /  0mm 30 W/m2
08:29 55 °F /  12.8 °C 51.3 °F /  10.7 °C 30.15in /  1020.9hPa SW 5.7mph /  9.2km/h 12mph /  19.3km/h 87% 0.00in /  0mm 33 W/m2
08:34 55.2 °F /  12.9 °C 51.4 °F /  10.8 °C 30.15in /  1020.9hPa WSW 4.4mph /  7.1km/h 12mph /  19.3km/h 87% 0.00in /  0mm 37 W/m2
08:39 55.3 °F /  12.9 °C 51.5 °F /  10.8 °C 30.15in /  1020.9hPa SSW 3.9mph /  6.3km/h 12mph /  19.3km/h 87% 0.00in /  0mm 40 W/m2
08:44 55.5 °F /  13.1 °C 51.7 °F /  10.9 °C 30.15in /  1020.9hPa WSW 6mph /  9.7km/h 11mph /  17.7km/h 87% 0.00in /  0mm 56 W/m2
08:49 55.8 °F /  13.2 °C 52 °F /  11.1 °C 30.15in /  1020.9hPa WSW 5.3mph /  8.5km/h 12mph /  19.3km/h 87% 0.00in /  0mm 100 W/m2
08:54 56 °F /  13.3 °C 52.3 °F /  11.3 °C 30.15in /  1020.9hPa WSW 4.9mph /  7.9km/h 12mph /  19.3km/h 87% 0.00in /  0mm 107 W/m2
08:59 56.3 °F /  13.5 °C 52.3 °F /  11.3 °C 30.15in /  1020.9hPa SW 5.2mph /  8.4km/h 13mph /  20.9km/h 86.6% 0.00in /  0mm 109 W/m2
09:04 56.5 °F /  13.6 °C 52.3 °F /  11.3 °C 30.15in /  1020.9hPa SW 6.9mph /  11.1km/h 9mph /  14.5km/h 86% 0.00in /  0mm 111 W/m2
09:09 56.5 °F /  13.6 °C 52.3 °F /  11.3 °C 30.15in /  1020.9hPa SW 6.2mph /  10km/h 11mph /  17.7km/h 86% 0.00in /  0mm 132 W/m2
09:14 56.7 °F /  13.7 °C 52.5 °F /  11.4 °C 30.15in /  1020.9hPa SW 6.2mph /  10km/h 14mph /  22.5km/h 86% 0.00in /  0mm 118 W/m2
09:19 56.7 °F /  13.7 °C 52.6 °F /  11.4 °C 30.15in /  1020.9hPa SSW 9mph /  14.5km/h 16mph /  25.7km/h 86% 0.00in /  0mm 218 W/m2
09:24 56.9 °F /  13.8 °C 52.8 °F /  11.6 °C 30.14in /  1020.5hPa SW 7.4mph /  11.9km/h 14mph /  22.5km/h 86% 0.00in /  0mm 221 W/m2
09:29 57.1 °F /  13.9 °C 52.7 °F /  11.5 °C 30.14in /  1020.5hPa WSW 5.9mph /  9.5km/h 14mph /  22.5km/h 85.2% 0.00in /  0mm 151 W/m2
09:34 57.3 °F /  14.1 °C 52.8 °F /  11.6 °C 30.14in /  1020.5hPa SW 7.2mph /  11.6km/h 14mph /  22.5km/h 85% 0.00in /  0mm 221 W/m2
09:39 57.4 °F /  14.1 °C 52.9 °F /  11.6 °C 30.14in /  1020.5hPa SW 8.4mph /  13.5km/h 17mph /  27.4km/h 85% 0.00in /  0mm 121 W/m2
09:44 57.4 °F /  14.1 °C 52.5 °F /  11.4 °C 30.14in /  1020.5hPa SW 7.2mph /  11.6km/h 16mph /  25.7km/h 84% 0.00in /  0mm 139 W/m2
09:49 57.6 °F /  14.2 °C 52.7 °F /  11.5 °C 30.14in /  1020.5hPa SW 6.6mph /  10.6km/h 16mph /  25.7km/h 84% 0.00in /  0mm 295 W/m2
09:54 57.8 °F /  14.3 °C 53 °F /  11.7 °C 30.14in /  1020.5hPa SW 10mph /  16.1km/h 21mph /  33.8km/h 84% 0.00in /  0mm 271 W/m2
09:59 58.3 °F /  14.6 °C 53.1 °F /  11.7 °C 30.14in /  1020.5hPa SW 8.1mph /  13km/h 18mph /  29km/h 83.2% 0.00in /  0mm 308 W/m2
10:04 58.6 °F /  14.8 °C 53.3 °F /  11.8 °C 30.13in /  1020.2hPa SW 10.6mph /  17.1km/h 19mph /  30.6km/h 82.4% 0.00in /  0mm 297 W/m2
10:09 58.8 °F /  14.9 °C 53.4 °F /  11.9 °C 30.13in /  1020.2hPa WSW 8mph /  12.9km/h 20mph /  32.2km/h 82% 0.00in /  0mm 311 W/m2
10:14 58.9 °F /  14.9 °C 53.4 °F /  11.9 °C 30.13in /  1020.2hPa WSW 9.6mph /  15.4km/h 21mph /  33.8km/h 81.6% 0.00in /  0mm 330 W/m2
10:19 59.1 °F /  15.1 °C 53.3 °F /  11.8 °C 30.13in /  1020.2hPa SW 5.6mph /  9km/h 21mph /  33.8km/h 81% 0.00in /  0mm 338 W/m2
10:24 59.4 °F /  15.2 °C 53.6 °F /  12 °C 30.13in /  1020.2hPa SW 9.2mph /  14.8km/h 16mph /  25.7km/h 81% 0.00in /  0mm 371 W/m2
10:29 59.5 °F /  15.3 °C 53.5 °F /  11.9 °C 30.13in /  1020.2hPa SW 7.8mph /  12.6km/h 17mph /  27.4km/h 80.2% 0.00in /  0mm 390 W/m2
10:34 59.7 °F /  15.4 °C 53.6 °F /  12 °C 30.13in /  1020.2hPa SW 9.6mph /  15.4km/h 17mph /  27.4km/h 80% 0.00in /  0mm 390 W/m2
10:39 59.8 °F /  15.4 °C 53.5 °F /  11.9 °C 30.13in /  1020.2hPa WSW 7mph /  11.3km/h 17mph /  27.4km/h 79.6% 0.00in /  0mm 369 W/m2
10:44 60.2 °F /  15.7 °C 53.6 °F /  12 °C 30.13in /  1020.2hPa WSW 8.2mph /  13.2km/h 17mph /  27.4km/h 78.8% 0.00in /  0mm 373 W/m2
10:49 60.3 °F /  15.7 °C 53.4 °F /  11.9 °C 30.13in /  1020.2hPa SW 7.7mph /  12.4km/h 17mph /  27.4km/h 78% 0.00in /  0mm 380 W/m2
10:54 60.5 °F /  15.8 °C 53.7 °F /  12.1 °C 30.12in /  1019.9hPa SSW 6.4mph /  10.3km/h 16mph /  25.7km/h 78% 0.00in /  0mm 390 W/m2
10:59 60.6 °F /  15.9 °C 53.4 °F /  11.9 °C 30.12in /  1019.9hPa SW 10.6mph /  17.1km/h 17mph /  27.4km/h 77.2% 0.00in /  0mm 397 W/m2
11:04 60.5 °F /  15.8 °C 53.3 °F /  11.8 °C 30.12in /  1019.9hPa SSW 7.6mph /  12.2km/h 16mph /  25.7km/h 77% 0.00in /  0mm 406 W/m2
11:09 60.6 °F /  15.9 °C 53.4 °F /  11.9 °C 30.12in /  1019.9hPa SW 7.8mph /  12.6km/h 16mph /  25.7km/h 77% 0.00in /  0mm 418 W/m2
11:14 61 °F /  16.1 °C 53.8 °F /  12.1 °C 30.11in /  1019.5hPa SW 7mph /  11.3km/h 14mph /  22.5km/h 77% 0.00in /  0mm 457 W/m2
11:19 61.4 °F /  16.3 °C 53.9 °F /  12.2 °C 30.11in /  1019.5hPa SSW 6.2mph /  10km/h 14mph /  22.5km/h 76% 0.00in /  0mm 476 W/m2
11:24 61.7 °F /  16.5 °C 53.7 °F /  12.1 °C 30.11in /  1019.5hPa SSW 9.7mph /  15.6km/h 20mph /  32.2km/h 75% 0.00in /  0mm 464 W/m2
11:29 61.5 °F /  16.4 °C 53.2 °F /  11.8 °C 30.11in /  1019.5hPa SSW 10.1mph /  16.3km/h 22mph /  35.4km/h 74% 0.00in /  0mm 489 W/m2
11:34 61.8 °F /  16.6 °C 53.4 °F /  11.9 °C 30.11in /  1019.5hPa SW 7.8mph /  12.6km/h 17mph /  27.4km/h 74% 0.00in /  0mm 541 W/m2
11:39 62.1 °F /  16.7 °C 53.3 °F /  11.8 °C 30.11in /  1019.5hPa SW 7.8mph /  12.6km/h 14mph /  22.5km/h 73% 0.00in /  0mm 538 W/m2
11:44 62.2 °F /  16.8 °C 53.2 °F /  11.8 °C 30.11in /  1019.5hPa SW 8mph /  12.9km/h 20mph /  32.2km/h 72.4% 0.00in /  0mm 497 W/m2
11:49 62.1 °F /  16.7 °C 53 °F /  11.7 °C 30.11in /  1019.5hPa WSW 14.4mph /  23.2km/h 20mph /  32.2km/h 72% 0.00in /  0mm 522 W/m2
11:54 62.1 °F /  16.7 °C 52.7 °F /  11.5 °C 30.11in /  1019.5hPa SW 10.4mph /  16.7km/h 20mph /  32.2km/h 71.4% 0.00in /  0mm 513 W/m2
11:59 62.2 °F /  16.8 °C 53 °F /  11.7 °C 30.11in /  1019.5hPa SW 7.6mph /  12.2km/h 15mph /  24.1km/h 72% 0.00in /  0mm 610 W/m2
12:04 62.7 °F /  17.1 °C 53.3 °F /  11.8 °C 30.11in /  1019.5hPa SW 8.2mph /  13.2km/h 19mph /  30.6km/h 71.4% 0.00in /  0mm 661 W/m2
12:09 63 °F /  17.2 °C 53.9 °F /  12.2 °C 30.11in /  1019.5hPa WSW 8.4mph /  13.5km/h 16mph /  25.7km/h 72% 0.00in /  0mm 645 W/m2
12:14 62.9 °F /  17.2 °C 53.3 °F /  11.8 °C 30.10in /  1019.2hPa SW 7.4mph /  11.9km/h 16mph /  25.7km/h 71% 0.00in /  0mm 274 W/m2
12:19 62.4 °F /  16.9 °C 52.9 °F /  11.6 °C 30.10in /  1019.2hPa WSW 8.6mph /  13.8km/h 18mph /  29km/h 71% 0.00in /  0mm 612 W/m2
12:24 62.5 °F /  16.9 °C 53 °F /  11.7 °C 30.10in /  1019.2hPa WSW 7.2mph /  11.6km/h 19mph /  30.6km/h 71% 0.00in /  0mm 612 W/m2
12:29 63 °F /  17.2 °C 53.6 °F /  12 °C 30.09in /  1018.8hPa SW 8.8mph /  14.2km/h 17mph /  27.4km/h 71.4% 0.00in /  0mm 547 W/m2
12:34 63 °F /  17.2 °C 53.4 °F /  11.9 °C 30.09in /  1018.8hPa WSW 9.8mph /  15.8km/h 19mph /  30.6km/h 71% 0.00in /  0mm 622 W/m2
12:39 63.1 °F /  17.3 °C 53.5 °F /  11.9 °C 30.09in /  1018.8hPa SW 10.3mph /  16.6km/h 20mph /  32.2km/h 70.8% 0.00in /  0mm 214 W/m2
12:44 62.8 °F /  17.1 °C 53 °F /  11.7 °C 30.09in /  1018.8hPa WSW 8.4mph /  13.5km/h 20mph /  32.2km/h 70.2% 0.00in /  0mm 587 W/m2
12:49 63 °F /  17.2 °C 53.1 °F /  11.7 °C 30.08in /  1018.5hPa SSW 10.9mph /  17.5km/h 24mph /  38.6km/h 70% 0.00in /  0mm 587 W/m2
12:54 62.7 °F /  17.1 °C 52.6 °F /  11.4 °C 30.08in /  1018.5hPa SW 8.4mph /  13.5km/h 19mph /  30.6km/h 69.6% 0.00in /  0mm 128 W/m2
12:59 62.6 °F /  17 °C 52.7 °F /  11.5 °C 30.08in /  1018.5hPa SW 8.5mph /  13.7km/h 20mph /  32.2km/h 70% 0.00in /  0mm 294 W/m2
13:04 62.7 °F /  17.1 °C 52.8 °F /  11.6 °C 30.07in /  1018.2hPa WSW 8.8mph /  14.2km/h 15mph /  24.1km/h 70% 0.00in /  0mm 343 W/m2
13:09 63 °F /  17.2 °C 53.1 °F /  11.7 °C 30.07in /  1018.2hPa SW 7mph /  11.3km/h 10mph /  16.1km/h 69.8% 0.00in /  0mm 295 W/m2
13:14 63.1 °F /  17.3 °C 52.9 °F /  11.6 °C 30.07in /  1018.2hPa SW 6.6mph /  10.6km/h 12mph /  19.3km/h 69% 0.00in /  0mm 288 W/m2
13:19 63.3 °F /  17.4 °C 53.1 °F /  11.7 °C 30.06in /  1017.8hPa SW 5.2mph /  8.4km/h 12mph /  19.3km/h 69% 0.00in /  0mm 255 W/m2
13:24 63.3 °F /  17.4 °C 53.1 °F /  11.7 °C 30.06in /  1017.8hPa WSW 7.6mph /  12.2km/h 12mph /  19.3km/h 69% 0.00in /  0mm 172 W/m2
13:29 63.3 °F /  17.4 °C 53.1 °F /  11.7 °C 30.06in /  1017.8hPa SW 8mph /  12.9km/h 14mph /  22.5km/h 69% 0.00in /  0mm 232 W/m2
13:34 63.3 °F /  17.4 °C 53.1 °F /  11.7 °C 30.06in /  1017.8hPa WSW 8.2mph /  13.2km/h 17mph /  27.4km/h 69% 0.00in /  0mm 292 W/m2
13:39 63.5 °F /  17.5 °C 53 °F /  11.7 °C 30.06in /  1017.8hPa WSW 9.1mph /  14.6km/h 18mph /  29km/h 68.8% 0.00in /  0mm 345 W/m2
13:44 63.7 °F /  17.6 °C 53 °F /  11.7 °C 30.05in /  1017.5hPa WSW 8mph /  12.9km/h 21mph /  33.8km/h 68.4% 0.00in /  0mm 227 W/m2
13:49 63.4 °F /  17.4 °C 52.8 °F /  11.6 °C 30.05in /  1017.5hPa SW 13mph /  20.9km/h 23mph /  37km/h 68.4% 0.00in /  0mm 221 W/m2
13:54 63.3 °F /  17.4 °C 52.4 °F /  11.3 °C 30.05in /  1017.5hPa WSW 11.2mph /  18km/h 22mph /  35.4km/h 67.6% 0.00in /  0mm 278 W/m2
13:59 63.3 °F /  17.4 °C 52.2 °F /  11.2 °C 30.05in /  1017.5hPa WSW 12.4mph /  20km/h 20mph /  32.2km/h 67% 0.00in /  0mm 292 W/m2
14:04 63.3 °F /  17.4 °C 52.4 °F /  11.3 °C 30.04in /  1017.2hPa WSW 9.8mph /  15.8km/h 17mph /  27.4km/h 67.8% 0.00in /  0mm 292 W/m2
14:09 63.3 °F /  17.4 °C 52.5 °F /  11.4 °C 30.04in /  1017.2hPa SW 7.8mph /  12.6km/h 16mph /  25.7km/h 68% 0.00in /  0mm 475 W/m2
14:14 63.6 °F /  17.6 °C 52.8 °F /  11.6 °C 30.03in /  1016.8hPa West 10.3mph /  16.6km/h 15mph /  24.1km/h 68% 0.00in /  0mm 475 W/m2
14:19 63.9 °F /  17.7 °C 53.1 °F /  11.7 °C 30.03in /  1016.8hPa WSW 8.2mph /  13.2km/h 17mph /  27.4km/h 68% 0.00in /  0mm 545 W/m2
14:24 64.7 °F /  18.2 °C 53.6 °F /  12 °C 30.03in /  1016.8hPa WSW 7.3mph /  11.7km/h 16mph /  25.7km/h 67.2% 0.00in /  0mm 545 W/m2
14:29 64.8 °F /  18.2 °C 53.1 °F /  11.7 °C 30.03in /  1016.8hPa WSW 9.3mph /  15km/h 20mph /  32.2km/h 66% 0.00in /  0mm 554 W/m2
14:34 65.2 °F /  18.4 °C 53.7 °F /  12.1 °C 30.03in /  1016.8hPa WSW 8.2mph /  13.2km/h 15mph /  24.1km/h 66.4% 0.00in /  0mm 443 W/m2
14:39 65.2 °F /  18.4 °C 53.4 °F /  11.9 °C 30.03in /  1016.8hPa WSW 7.6mph /  12.2km/h 19mph /  30.6km/h 65.8% 0.00in /  0mm 512 W/m2
14:44 64.9 °F /  18.3 °C 53.3 °F /  11.8 °C 30.03in /  1016.8hPa West 12.8mph /  20.6km/h 18mph /  29km/h 66.2% 0.00in /  0mm 316 W/m2
14:49 64.3 °F /  17.9 °C 52.9 °F /  11.6 °C 30.03in /  1016.8hPa WSW 9.2mph /  14.8km/h 19mph /  30.6km/h 66.2% 0.00in /  0mm 239 W/m2
14:54 64.4 °F /  18 °C 53.1 °F /  11.7 °C 30.03in /  1016.8hPa WSW 7.8mph /  12.6km/h 15mph /  24.1km/h 66.6% 0.00in /  0mm 188 W/m2
14:59 64.2 °F /  17.9 °C 53.1 °F /  11.7 °C 30.02in /  1016.5hPa SW 7.6mph /  12.2km/h 16mph /  25.7km/h 67% 0.00in /  0mm 206 W/m2
15:04 64.1 °F /  17.8 °C 52.8 °F /  11.6 °C 30.02in /  1016.5hPa WSW 10.6mph /  17.1km/h 21mph /  33.8km/h 66.6% 0.00in /  0mm 174 W/m2
15:09 64 °F /  17.8 °C 52.7 °F /  11.5 °C 30.02in /  1016.5hPa SW 8.5mph /  13.7km/h 17mph /  27.4km/h 66.4% 0.00in /  0mm 121 W/m2
15:14 64.1 °F /  17.8 °C 52.7 °F /  11.5 °C 30.02in /  1016.5hPa WSW 11.2mph /  18km/h 18mph /  29km/h 66.4% 0.00in /  0mm 128 W/m2
15:19 64 °F /  17.8 °C 52.3 °F /  11.3 °C 30.02in /  1016.5hPa SW 6.3mph /  10.1km/h 18mph /  29km/h 65.6% 0.00in /  0mm 118 W/m2
15:24 63.9 °F /  17.7 °C 52.4 °F /  11.3 °C 30.02in /  1016.5hPa WSW 9.1mph /  14.6km/h 20mph /  32.2km/h 66% 0.00in /  0mm 107 W/m2
15:29 63.8 °F /  17.7 °C 52.2 °F /  11.2 °C 30.02in /  1016.5hPa WSW 9.8mph /  15.8km/h 19mph /  30.6km/h 66% 0.00in /  0mm 74 W/m2
15:34 63.4 °F /  17.4 °C 51.9 °F /  11.1 °C 30.02in /  1016.5hPa WSW 7.8mph /  12.6km/h 16mph /  25.7km/h 66% 0.00in /  0mm 63 W/m2
15:39 63.2 °F /  17.3 °C 52 °F /  11.1 °C 30.03in /  1016.8hPa WNW 11.7mph /  18.8km/h 24mph /  38.6km/h 67% 0.00in /  0mm 60 W/m2
15:44 62.2 °F /  16.8 °C 52.3 °F /  11.3 °C 30.03in /  1016.8hPa WSW 13.6mph /  21.9km/h 20mph /  32.2km/h 70% 0.00in /  0mm 54 W/m2
15:49 60.7 °F /  15.9 °C 52.4 °F /  11.3 °C 30.04in /  1017.2hPa West 15.3mph /  24.6km/h 26mph /  41.8km/h 74.2% 0.00in /  0mm 60 W/m2
15:54 59 °F /  15 °C 52.1 °F /  11.2 °C 30.04in /  1017.2hPa West 13.8mph /  22.2km/h 24mph /  38.6km/h 78% 0.00in /  0mm 70 W/m2
15:59 57.6 °F /  14.2 °C 52.1 °F /  11.2 °C 30.04in /  1017.2hPa West 10.5mph /  16.9km/h 21mph /  33.8km/h 81.8% 0.01in /  0.25mm 74 W/m2
16:04 56.9 °F /  13.8 °C 52.4 °F /  11.3 °C 30.04in /  1017.2hPa West 11.4mph /  18.3km/h 19mph /  30.6km/h 84.8% 0.02in /  0.51mm 90 W/m2
16:09 56.6 °F /  13.7 °C 52.6 °F /  11.4 °C 30.05in /  1017.5hPa West 9.2mph /  14.8km/h 16mph /  25.7km/h 86.4% 0.02in /  0.51mm 56 W/m2
16:14 56.5 °F /  13.6 °C 52.8 °F /  11.6 °C 30.04in /  1017.2hPa West 9.6mph /  15.4km/h 20mph /  32.2km/h 87.6% 0.02in /  0.51mm 56 W/m2
16:19 56.1 °F /  13.4 °C 52.7 °F /  11.5 °C 30.04in /  1017.2hPa WSW 9.1mph /  14.6km/h 15mph /  24.1km/h 88% 0.03in /  0.76mm 81 W/m2
16:24 56.1 °F /  13.4 °C 52.9 °F /  11.6 °C 30.04in /  1017.2hPa West 6.2mph /  10km/h 13mph /  20.9km/h 89% 0.03in /  0.76mm 90 W/m2
16:29 56.1 °F /  13.4 °C 52.9 °F /  11.6 °C 30.04in /  1017.2hPa West 7.8mph /  12.6km/h 11mph /  17.7km/h 89% 0.03in /  0.76mm 100 W/m2
16:34 56.2 °F /  13.4 °C 53.3 °F /  11.8 °C 30.03in /  1016.8hPa WSW 6.2mph /  10km/h 11mph /  17.7km/h 89.8% 0.03in /  0.76mm 128 W/m2
16:39 56.4 °F /  13.6 °C 53.5 °F /  11.9 °C 30.03in /  1016.8hPa WSW 5mph /  8km/h 12mph /  19.3km/h 90% 0.03in /  0.76mm 144 W/m2
16:44 56.5 °F /  13.6 °C 53.6 °F /  12 °C 30.03in /  1016.8hPa WSW 4.3mph /  6.9km/h 11mph /  17.7km/h 90% 0.03in /  0.76mm 211 W/m2
16:49 56.7 °F /  13.7 °C 53.9 °F /  12.2 °C 30.03in /  1016.8hPa West 6.2mph /  10km/h 13mph /  20.9km/h 90% 0.03in /  0.76mm 292 W/m2
16:54 57 °F /  13.9 °C 54.1 °F /  12.3 °C 30.03in /  1016.8hPa WSW 5.7mph /  9.2km/h 10mph /  16.1km/h 90% 0.03in /  0.76mm 253 W/m2
16:59 57.4 °F /  14.1 °C 54.5 °F /  12.5 °C 30.03in /  1016.8hPa WSW 5.4mph /  8.7km/h 11mph /  17.7km/h 90% 0.03in /  0.76mm 221 W/m2
17:04 57.4 °F /  14.1 °C 54.5 °F /  12.5 °C 30.03in /  1016.8hPa WSW 6mph /  9.7km/h 13mph /  20.9km/h 90% 0.02in /  0.51mm 174 W/m2
17:09 57.6 °F /  14.2 °C 54.3 °F /  12.4 °C 30.03in /  1016.8hPa West 6.4mph /  10.3km/h 10mph /  16.1km/h 89% 0.02in /  0.51mm 155 W/m2
17:14 57.4 °F /  14.1 °C 54.2 °F /  12.3 °C 30.03in /  1016.8hPa WSW 6.4mph /  10.3km/h 11mph /  17.7km/h 89% 0.01in /  0.25mm 88 W/m2
17:19 57.3 °F /  14.1 °C 54.1 °F /  12.3 °C 30.03in /  1016.8hPa West 5mph /  8km/h 11mph /  17.7km/h 89% 0.01in /  0.25mm 123 W/m2
17:24 57.6 °F /  14.2 °C 54.3 °F /  12.4 °C 30.03in /  1016.8hPa WSW 4.8mph /  7.7km/h 10mph /  16.1km/h 89% 0.00in /  0mm 114 W/m2
17:29 57.6 °F /  14.2 °C 54.2 °F /  12.3 °C 30.03in /  1016.8hPa West 5.2mph /  8.4km/h 10mph /  16.1km/h 88.8% 0.00in /  0mm 98 W/m2
17:34 57.6 °F /  14.2 °C 54 °F /  12.2 °C 30.03in /  1016.8hPa WSW 5.2mph /  8.4km/h 10mph /  16.1km/h 88% 0.00in /  0mm 83 W/m2
17:39 57.5 °F /  14.2 °C 53.9 °F /  12.2 °C 30.03in /  1016.8hPa West 5.3mph /  8.5km/h 10mph /  16.1km/h 88% 0.00in /  0mm 74 W/m2
17:44 57.4 °F /  14.1 °C 53.8 °F /  12.1 °C 30.03in /  1016.8hPa West 4.5mph /  7.2km/h 11mph /  17.7km/h 88% 0.00in /  0mm 56 W/m2
17:49 57.3 °F /  14.1 °C 53.7 °F /  12.1 °C 30.03in /  1016.8hPa West 5.4mph /  8.7km/h 11mph /  17.7km/h 88% 0.00in /  0mm 53 W/m2
17:54 57 °F /  13.9 °C 53.4 °F /  11.9 °C 30.03in /  1016.8hPa West 2.5mph /  4km/h 10mph /  16.1km/h 88% 0.00in /  0mm 35 W/m2
17:59 56.8 °F /  13.8 °C 53.2 °F /  11.8 °C 30.03in /  1016.8hPa West 4mph /  6.4km/h 7mph /  11.3km/h 88% 0.00in /  0mm 23 W/m2
18:04 56.7 °F /  13.7 °C 53.1 °F /  11.7 °C 30.03in /  1016.8hPa WSW 5.7mph /  9.2km/h 10mph /  16.1km/h 88% 0.00in /  0mm 19 W/m2
18:09 56.7 °F /  13.7 °C 53.1 °F /  11.7 °C 30.03in /  1016.8hPa WSW 3.3mph /  5.3km/h 7mph /  11.3km/h 88% 0.00in /  0mm 14 W/m2
18:14 56.7 °F /  13.7 °C 53.1 °F /  11.7 °C 30.03in /  1016.8hPa WSW 3.6mph /  5.8km/h 9mph /  14.5km/h 88% 0.00in /  0mm 30 W/m2
18:19 56.5 °F /  13.6 °C 52.9 °F /  11.6 °C 30.03in /  1016.8hPa West 3.4mph /  5.5km/h 6mph /  9.7km/h 88% 0.00in /  0mm 30 W/m2
18:24 56.3 °F /  13.5 °C 52.8 °F /  11.6 °C 30.03in /  1016.8hPa West 2.2mph /  3.5km/h 5mph /  8km/h 88% 0.00in /  0mm 9 W/m2
18:29 56.1 °F /  13.4 °C 52.7 °F /  11.5 °C 30.03in /  1016.8hPa West 3.1mph /  5km/h 6mph /  9.7km/h 88% 0.00in /  0mm 5 W/m2
18:34 55.9 °F /  13.3 °C 52.5 °F /  11.4 °C 30.03in /  1016.8hPa West 4.4mph /  7.1km/h 8mph /  12.9km/h 88% 0.00in /  0mm 0 W/m2
18:39 55.9 °F /  13.3 °C 52.5 °F /  11.4 °C 30.03in /  1016.8hPa West 3.3mph /  5.3km/h 8mph /  12.9km/h 88% 0.00in /  0mm 0 W/m2
18:44 55.9 °F /  13.3 °C 52.5 °F /  11.4 °C 30.03in /  1016.8hPa West 2.5mph /  4km/h 6mph /  9.7km/h 88% 0.00in /  0mm 0 W/m2
18:49 56 °F /  13.3 °C 52.6 °F /  11.4 °C 30.03in /  1016.8hPa West 2.4mph /  3.9km/h 6mph /  9.7km/h 88% 0.00in /  0mm 0 W/m2
18:54 55.9 °F /  13.3 °C 52.5 °F /  11.4 °C 30.03in /  1016.8hPa West 3.2mph /  5.1km/h 8mph /  12.9km/h 88% 0.00in /  0mm 0 W/m2
18:59 55.9 °F /  13.3 °C 52.5 °F /  11.4 °C 30.04in /  1017.2hPa WSW 2.9mph /  4.7km/h 8mph /  12.9km/h 88% 0.00in /  0mm 0 W/m2
19:04 55.9 °F /  13.3 °C 52.5 °F /  11.4 °C 30.04in /  1017.2hPa West 3.7mph /  6km/h 6mph /  9.7km/h 88% 0.00in /  0mm 0 W/m2
19:09 56 °F /  13.3 °C 52.6 °F /  11.4 °C 30.04in /  1017.2hPa West 3mph /  4.8km/h 6mph /  9.7km/h 88% 0.00in /  0mm 0 W/m2
19:14 56.1 °F /  13.4 °C 52.7 °F /  11.5 °C 30.04in /  1017.2hPa West 2.9mph /  4.7km/h 5mph /  8km/h 88% 0.00in /  0mm 0 W/m2
19:19 56 °F /  13.3 °C 52.6 °F /  11.4 °C 30.04in /  1017.2hPa West 3.6mph /  5.8km/h 8mph /  12.9km/h 88% 0.00in /  0mm 0 W/m2
19:24 56 °F /  13.3 °C 52.6 °F /  11.4 °C 30.05in /  1017.5hPa West 4mph /  6.4km/h 8mph /  12.9km/h 88% 0.00in /  0mm 0 W/m2
19:29 55.9 °F /  13.3 °C 52.5 °F /  11.4 °C 30.05in /  1017.5hPa West 3.7mph /  6km/h 9mph /  14.5km/h 88% 0.00in /  0mm 0 W/m2
19:34 55.9 °F /  13.3 °C 52.5 °F /  11.4 °C 30.05in /  1017.5hPa WNW 2.9mph /  4.7km/h 8mph /  12.9km/h 88% 0.00in /  0mm 0 W/m2
19:39 55.8 °F /  13.2 °C 52.3 °F /  11.3 °C 30.05in /  1017.5hPa West 4.8mph /  7.7km/h 10mph /  16.1km/h 88% 0.00in /  0mm 0 W/m2
19:44 55.6 °F /  13.1 °C 51.9 °F /  11.1 °C 30.05in /  1017.5hPa West 5.9mph /  9.5km/h 9mph /  14.5km/h 87.2% 0.00in /  0mm 0 W/m2
19:49 55.6 °F /  13.1 °C 51.8 °F /  11 °C 30.05in /  1017.5hPa West 3mph /  4.8km/h 9mph /  14.5km/h 87% 0.00in /  0mm 0 W/m2
19:54 55.4 °F /  13 °C 51.6 °F /  10.9 °C 30.06in /  1017.8hPa West 3mph /  4.8km/h 8mph /  12.9km/h 87% 0.00in /  0mm 0 W/m2
19:59 55.2 °F /  12.9 °C 51.4 °F /  10.8 °C 30.06in /  1017.8hPa West 3.1mph /  5km/h 8mph /  12.9km/h 87% 0.00in /  0mm 0 W/m2
20:04 55 °F /  12.8 °C 51.2 °F /  10.7 °C 30.06in /  1017.8hPa West 2.9mph /  4.7km/h 7mph /  11.3km/h 86.8% 0.00in /  0mm 0 W/m2
20:09 55 °F /  12.8 °C 50.8 °F /  10.4 °C 30.06in /  1017.8hPa West 2.3mph /  3.7km/h 6mph /  9.7km/h 86% 0.00in /  0mm 0 W/m2
20:14 54.8 °F /  12.7 °C 50.6 °F /  10.3 °C 30.06in /  1017.8hPa WNW 1.4mph /  2.3km/h 3mph /  4.8km/h 86% 0.00in /  0mm 0 W/m2
20:19 54.6 °F /  12.6 °C 50.5 °F /  10.3 °C 30.06in /  1017.8hPa WNW 2.1mph /  3.4km/h 5mph /  8km/h 86% 0.00in /  0mm 0 W/m2
20:24 54.4 °F /  12.4 °C 50.3 °F /  10.2 °C 30.06in /  1017.8hPa WNW 1.9mph /  3.1km/h 4mph /  6.4km/h 86% 0.00in /  0mm 0 W/m2
20:29 54.1 °F /  12.3 °C 50 °F /  10 °C 30.06in /  1017.8hPa West 2.1mph /  3.4km/h 4mph /  6.4km/h 86% 0.00in /  0mm 0 W/m2
20:34 54.1 °F /  12.3 °C 50.4 °F /  10.2 °C 30.06in /  1017.8hPa West 2.1mph /  3.4km/h 4mph /  6.4km/h 87% 0.00in /  0mm 0 W/m2
20:39 54 °F /  12.2 °C 50.1 °F /  10.1 °C 30.07in /  1018.2hPa West 3mph /  4.8km/h 6mph /  9.7km/h 86.6% 0.00in /  0mm 0 W/m2
20:44 54 °F /  12.2 °C 49.8 °F /  9.9 °C 30.07in /  1018.2hPa West 2mph /  3.2km/h 4mph /  6.4km/h 86% 0.00in /  0mm 0 W/m2
20:49 53.8 °F /  12.1 °C 50 °F /  10 °C 30.07in /  1018.2hPa West 2.6mph /  4.2km/h 5mph /  8km/h 87% 0.00in /  0mm 0 W/m2
20:54 53.8 °F /  12.1 °C 50 °F /  10 °C 30.07in /  1018.2hPa West 1.3mph /  2.1km/h 4mph /  6.4km/h 87% 0.00in /  0mm 0 W/m2
20:59 53.6 °F /  12 °C 49.8 °F /  9.9 °C 30.07in /  1018.2hPa West 1.8mph /  2.9km/h 4mph /  6.4km/h 87% 0.00in /  0mm 0 W/m2
21:04 53.4 °F /  11.9 °C 49.6 °F /  9.8 °C 30.07in /  1018.2hPa West 1.5mph /  2.4km/h 4mph /  6.4km/h 87% 0.00in /  0mm 0 W/m2
21:09 53.4 °F /  11.9 °C 49.6 °F /  9.8 °C 30.07in /  1018.2hPa West 0.2mph /  0.3km/h 3mph /  4.8km/h 87% 0.00in /  0mm 0 W/m2
21:14 53.4 °F /  11.9 °C 49.6 °F /  9.8 °C 30.07in /  1018.2hPa West 0.4mph /  0.6km/h 3mph /  4.8km/h 87% 0.00in /  0mm 0 W/m2
21:19 53.2 °F /  11.8 °C 49.4 °F /  9.7 °C 30.08in /  1018.5hPa West 1.4mph /  2.3km/h 2mph /  3.2km/h 87% 0.00in /  0mm 0 W/m2
21:24 53.1 °F /  11.7 °C 49.3 °F /  9.6 °C 30.08in /  1018.5hPa West 0.6mph /  1km/h 3mph /  4.8km/h 87% 0.00in /  0mm 0 W/m2
21:29 53.5 °F /  11.9 °C 49.8 °F /  9.9 °C 30.08in /  1018.5hPa Calm     87.2% 0.00in /  0mm 0 W/m2
21:34 53.9 °F /  12.2 °C 50.5 °F /  10.3 °C 30.08in /  1018.5hPa Calm     88% 0.00in /  0mm 0 W/m2
21:39 53.8 °F /  12.1 °C 50.4 °F /  10.2 °C 30.08in /  1018.5hPa West 0.5mph /  0.8km/h 2mph /  3.2km/h 88% 0.00in /  0mm 0 W/m2
21:44 53.1 °F /  11.7 °C 49.5 °F /  9.7 °C 30.09in /  1018.8hPa West 1.8mph /  2.9km/h 3mph /  4.8km/h 87.4% 0.00in /  0mm 0 W/m2
21:49 52.8 °F /  11.6 °C 49.2 °F /  9.6 °C 30.09in /  1018.8hPa West 2.1mph /  3.4km/h 4mph /  6.4km/h 87.6% 0.00in /  0mm 0 W/m2
21:54 52.7 °F /  11.5 °C 49.3 °F /  9.6 °C 30.09in /  1018.8hPa WNW 2.3mph /  3.7km/h 6mph /  9.7km/h 88% 0.00in /  0mm 0 W/m2
21:59 52.6 °F /  11.4 °C 49.2 °F /  9.6 °C 30.09in /  1018.8hPa WNW 1.8mph /  2.9km/h 4mph /  6.4km/h 88% 0.00in /  0mm 0 W/m2
22:04 52.5 °F /  11.4 °C 49.1 °F /  9.5 °C 30.09in /  1018.8hPa WNW 2.6mph /  4.2km/h 4mph /  6.4km/h 88% 0.00in /  0mm 0 W/m2
22:09 52.5 °F /  11.4 °C 49.1 °F /  9.5 °C 30.09in /  1018.8hPa WNW 2.2mph /  3.5km/h 3mph /  4.8km/h 88% 0.00in /  0mm 0 W/m2
22:14 52.3 °F /  11.3 °C 48.9 °F /  9.4 °C 30.09in /  1018.8hPa WNW 1.6mph /  2.6km/h 3mph /  4.8km/h 88% 0.00in /  0mm 0 W/m2
22:19 52.1 °F /  11.2 °C 48.6 °F /  9.2 °C 30.09in /  1018.8hPa WNW 1.9mph /  3.1km/h 3mph /  4.8km/h 88% 0.00in /  0mm 0 W/m2
22:24 51.7 °F /  10.9 °C 48.3 °F /  9.1 °C 30.09in /  1018.8hPa WNW 1.3mph /  2.1km/h 4mph /  6.4km/h 88% 0.00in /  0mm 0 W/m2
22:29 51.4 °F /  10.8 °C 48 °F /  8.9 °C 30.09in /  1018.8hPa WNW 1.3mph /  2.1km/h 3mph /  4.8km/h 88% 0.00in /  0mm 0 W/m2
22:34 51.3 °F /  10.7 °C 47.9 °F /  8.8 °C 30.10in /  1019.2hPa WNW 0.9mph /  1.4km/h 2mph /  3.2km/h 88.3% 0.00in /  0mm 0 W/m2
22:39 51.3 °F /  10.7 °C 48.2 °F /  9 °C 30.09in /  1018.8hPa Calm   2mph /  3.2km/h 89% 0.00in /  0mm 0 W/m2
22:44 51.1 °F /  10.6 °C 48 °F /  8.9 °C 30.10in /  1019.2hPa Calm     89% 0.00in /  0mm 0 W/m2
22:49 51.1 °F /  10.6 °C 48 °F /  8.9 °C 30.10in /  1019.2hPa WNW 0.8mph /  1.3km/h 2mph /  3.2km/h 89% 0.00in /  0mm 0 W/m2
22:54 50.8 °F /  10.4 °C 47.7 °F /  8.7 °C 30.10in /  1019.2hPa Calm   1mph /  1.6km/h 89% 0.00in /  0mm 0 W/m2
22:59 50.5 °F /  10.3 °C 47.5 °F /  8.6 °C 30.10in /  1019.2hPa Calm     89% 0.00in /  0mm 0 W/m2
23:04 50.4 °F /  10.2 °C 47.3 °F /  8.5 °C 30.10in /  1019.2hPa Calm     89% 0.00in /  0mm 0 W/m2
23:09 50.2 °F /  10.1 °C 47.1 °F /  8.4 °C 30.10in /  1019.2hPa Calm     89% 0.00in /  0mm 0 W/m2
23:14 50 °F /  10 °C 47 °F /  8.3 °C 30.10in /  1019.2hPa Calm     89.8% 0.00in /  0mm 0 W/m2
23:19 49.7 °F /  9.8 °C 46.8 °F /  8.2 °C 30.10in /  1019.2hPa WNW 1mph /  1.6km/h 3mph /  4.8km/h 90% 0.00in /  0mm 0 W/m2
23:24 49.6 °F /  9.8 °C 46.8 °F /  8.2 °C 30.10in /  1019.2hPa WNW 2mph /  3.2km/h 3mph /  4.8km/h 90% 0.00in /  0mm 0 W/m2
23:29 49.6 °F /  9.8 °C 46.8 °F /  8.2 °C 30.10in /  1019.2hPa WNW 2.5mph /  4km/h 4mph /  6.4km/h 90% 0.00in /  0mm 0 W/m2
23:34 49.6 °F /  9.8 °C 46.8 °F /  8.2 °C 30.11in /  1019.5hPa WNW 2.6mph /  4.2km/h 4mph /  6.4km/h 90% 0.00in /  0mm 0 W/m2
23:39 49.6 °F /  9.8 °C 46.8 °F /  8.2 °C 30.11in /  1019.5hPa WNW 2.4mph /  3.9km/h 4mph /  6.4km/h 90% 0.00in /  0mm 0 W/m2
23:44 49.6 °F /  9.8 °C 46.8 °F /  8.2 °C 30.11in /  1019.5hPa WNW 2.8mph /  4.5km/h 5mph /  8km/h 90% 0.00in /  0mm 0 W/m2
23:49 49.6 °F /  9.8 °C 46.8 °F /  8.2 °C 30.11in /  1019.5hPa WNW 2mph /  3.2km/h 4mph /  6.4km/h 90% 0.00in /  0mm 0 W/m2
23:54 49.5 °F /  9.7 °C 46.6 °F /  8.1 °C 30.11in /  1019.5hPa WNW 2.2mph /  3.5km/h 3mph /  4.8km/h 90% 0.00in /  0mm 0 W/m2
23:59 49.5 °F /  9.7 °C 46.6 °F /  8.1 °C 30.11in /  1019.5hPa West 3.3mph /  5.3km/h 5mph /  8km/h 90% 0.00in /  0mm 0 W/m2
Bath Spa Weather
Compliments of Weather Underground - 2 mb